sensor_id;sensor_type;location;lat;lon;timestamp;P1;durP1;ratioP1;P2;durP2;ratioP2
6671;SDS011;3372;48.690;12.362;2022-11-30T00:02:15;43.73;;;22.20;;
6671;SDS011;3372;48.690;12.362;2022-11-30T00:04:41;42.83;;;22.40;;
6671;SDS011;3372;48.690;12.362;2022-11-30T00:07:06;36.50;;;21.90;;
6671;SDS011;3372;48.690;12.362;2022-11-30T00:09:32;42.97;;;22.80;;
6671;SDS011;3372;48.690;12.362;2022-11-30T00:11:57;39.20;;;21.17;;
6671;SDS011;3372;48.690;12.362;2022-11-30T00:14:23;44.47;;;23.23;;
6671;SDS011;3372;48.690;12.362;2022-11-30T00:16:49;44.87;;;22.97;;
6671;SDS011;3372;48.690;12.362;2022-11-30T00:19:14;43.73;;;23.30;;
6671;SDS011;3372;48.690;12.362;2022-11-30T00:21:40;42.47;;;23.53;;
6671;SDS011;3372;48.690;12.362;2022-11-30T00:24:05;45.93;;;23.00;;
6671;SDS011;3372;48.690;12.362;2022-11-30T00:26:31;52.37;;;25.20;;
6671;SDS011;3372;48.690;12.362;2022-11-30T00:28:57;47.50;;;24.00;;
6671;SDS011;3372;48.690;12.362;2022-11-30T00:31:22;45.50;;;24.13;;
6671;SDS011;3372;48.690;12.362;2022-11-30T00:33:49;44.27;;;23.07;;
6671;SDS011;3372;48.690;12.362;2022-11-30T00:36:18;48.00;;;24.87;;
6671;SDS011;3372;48.690;12.362;2022-11-30T00:38:46;48.63;;;24.17;;
6671;SDS011;3372;48.690;12.362;2022-11-30T00:41:12;52.93;;;25.30;;
6671;SDS011;3372;48.690;12.362;2022-11-30T00:43:38;49.40;;;24.50;;
6671;SDS011;3372;48.690;12.362;2022-11-30T00:46:04;51.93;;;26.63;;
6671;SDS011;3372;48.690;12.362;2022-11-30T00:48:30;51.20;;;25.83;;
6671;SDS011;3372;48.690;12.362;2022-11-30T00:50:56;47.07;;;24.00;;
6671;SDS011;3372;48.690;12.362;2022-11-30T00:53:21;52.57;;;24.40;;
6671;SDS011;3372;48.690;12.362;2022-11-30T00:55:47;52.00;;;25.10;;
6671;SDS011;3372;48.690;12.362;2022-11-30T00:58:13;53.20;;;24.17;;
6671;SDS011;3372;48.690;12.362;2022-11-30T01:00:39;50.33;;;26.33;;
6671;SDS011;3372;48.690;12.362;2022-11-30T01:03:05;50.60;;;24.33;;
6671;SDS011;3372;48.690;12.362;2022-11-30T01:05:31;56.20;;;25.70;;
6671;SDS011;3372;48.690;12.362;2022-11-30T01:07:58;60.43;;;29.13;;
6671;SDS011;3372;48.690;12.362;2022-11-30T01:10:25;50.30;;;25.80;;
6671;SDS011;3372;48.690;12.362;2022-11-30T01:12:50;53.27;;;26.20;;
6671;SDS011;3372;48.690;12.362;2022-11-30T01:15:17;55.00;;;26.90;;
6671;SDS011;3372;48.690;12.362;2022-11-30T01:17:43;54.47;;;26.10;;
6671;SDS011;3372;48.690;12.362;2022-11-30T01:20:08;59.80;;;27.43;;
6671;SDS011;3372;48.690;12.362;2022-11-30T01:22:34;51.27;;;25.17;;
6671;SDS011;3372;48.690;12.362;2022-11-30T01:25:00;59.17;;;28.50;;
6671;SDS011;3372;48.690;12.362;2022-11-30T01:27:26;61.97;;;29.37;;
6671;SDS011;3372;48.690;12.362;2022-11-30T01:29:52;56.43;;;27.40;;
6671;SDS011;3372;48.690;12.362;2022-11-30T01:32:17;59.53;;;27.43;;
6671;SDS011;3372;48.690;12.362;2022-11-30T01:34:43;60.60;;;28.20;;
6671;SDS011;3372;48.690;12.362;2022-11-30T01:37:08;51.63;;;25.97;;
6671;SDS011;3372;48.690;12.362;2022-11-30T01:39:34;54.13;;;26.60;;
6671;SDS011;3372;48.690;12.362;2022-11-30T01:42:00;46.43;;;26.00;;
6671;SDS011;3372;48.690;12.362;2022-11-30T01:46:55;54.03;;;24.43;;
6671;SDS011;3372;48.690;12.362;2022-11-30T01:49:37;53.70;;;25.17;;
6671;SDS011;3372;48.690;12.362;2022-11-30T01:52:08;50.10;;;24.57;;
6671;SDS011;3372;48.690;12.362;2022-11-30T01:54:46;60.67;;;26.70;;
6671;SDS011;3372;48.690;12.362;2022-11-30T01:57:21;58.13;;;25.87;;
6671;SDS011;3372;48.690;12.362;2022-11-30T01:59:52;56.30;;;26.70;;
6671;SDS011;3372;48.690;12.362;2022-11-30T02:02:25;55.60;;;26.63;;
6671;SDS011;3372;48.690;12.362;2022-11-30T02:05:12;54.50;;;26.07;;
6671;SDS011;3372;48.690;12.362;2022-11-30T02:07:38;51.37;;;25.37;;
6671;SDS011;3372;48.690;12.362;2022-11-30T02:10:04;55.57;;;25.30;;
6671;SDS011;3372;48.690;12.362;2022-11-30T02:12:38;51.93;;;25.80;;
6671;SDS011;3372;48.690;12.362;2022-11-30T02:15:15;46.07;;;24.87;;
6671;SDS011;3372;48.690;12.362;2022-11-30T02:18:09;50.07;;;23.90;;
6671;SDS011;3372;48.690;12.362;2022-11-30T02:21:11;54.50;;;25.40;;
6671;SDS011;3372;48.690;12.362;2022-11-30T02:23:59;53.23;;;24.33;;
6671;SDS011;3372;48.690;12.362;2022-11-30T02:29:28;54.67;;;27.30;;
6671;SDS011;3372;48.690;12.362;2022-11-30T02:34:42;50.30;;;24.07;;
6671;SDS011;3372;48.690;12.362;2022-11-30T02:37:11;46.93;;;23.80;;
6671;SDS011;3372;48.690;12.362;2022-11-30T02:39:38;52.23;;;26.50;;
6671;SDS011;3372;48.690;12.362;2022-11-30T02:42:05;53.63;;;26.83;;
6671;SDS011;3372;48.690;12.362;2022-11-30T02:44:38;53.80;;;25.60;;
6671;SDS011;3372;48.690;12.362;2022-11-30T02:52:57;51.47;;;26.27;;
6671;SDS011;3372;48.690;12.362;2022-11-30T02:55:23;50.67;;;26.07;;
6671;SDS011;3372;48.690;12.362;2022-11-30T02:57:49;57.47;;;26.87;;
6671;SDS011;3372;48.690;12.362;2022-11-30T03:00:15;51.00;;;25.53;;
6671;SDS011;3372;48.690;12.362;2022-11-30T03:02:41;51.37;;;26.27;;
6671;SDS011;3372;48.690;12.362;2022-11-30T03:05:07;49.90;;;26.17;;
6671;SDS011;3372;48.690;12.362;2022-11-30T03:07:33;58.93;;;27.40;;
6671;SDS011;3372;48.690;12.362;2022-11-30T03:09:59;60.60;;;28.33;;
6671;SDS011;3372;48.690;12.362;2022-11-30T03:12:24;62.10;;;28.63;;
6671;SDS011;3372;48.690;12.362;2022-11-30T03:14:50;61.13;;;29.37;;
6671;SDS011;3372;48.690;12.362;2022-11-30T03:17:16;55.77;;;28.00;;
6671;SDS011;3372;48.690;12.362;2022-11-30T03:19:42;63.80;;;27.47;;
6671;SDS011;3372;48.690;12.362;2022-11-30T03:22:08;57.13;;;27.60;;
6671;SDS011;3372;48.690;12.362;2022-11-30T03:24:34;59.20;;;27.83;;
6671;SDS011;3372;48.690;12.362;2022-11-30T03:26:59;65.60;;;30.00;;
6671;SDS011;3372;48.690;12.362;2022-11-30T03:29:25;61.33;;;27.57;;
6671;SDS011;3372;48.690;12.362;2022-11-30T03:31:51;62.70;;;27.50;;
6671;SDS011;3372;48.690;12.362;2022-11-30T03:34:16;62.80;;;28.80;;
6671;SDS011;3372;48.690;12.362;2022-11-30T03:36:42;65.97;;;28.80;;
6671;SDS011;3372;48.690;12.362;2022-11-30T03:39:08;60.50;;;27.73;;
6671;SDS011;3372;48.690;12.362;2022-11-30T03:41:33;55.13;;;26.77;;
6671;SDS011;3372;48.690;12.362;2022-11-30T03:43:59;67.40;;;28.90;;
6671;SDS011;3372;48.690;12.362;2022-11-30T03:46:25;56.03;;;26.50;;
6671;SDS011;3372;48.690;12.362;2022-11-30T03:48:51;56.17;;;26.70;;
6671;SDS011;3372;48.690;12.362;2022-11-30T03:51:17;65.63;;;26.47;;
6671;SDS011;3372;48.690;12.362;2022-11-30T03:53:43;59.70;;;27.90;;
6671;SDS011;3372;48.690;12.362;2022-11-30T03:56:10;67.20;;;28.20;;
6671;SDS011;3372;48.690;12.362;2022-11-30T03:58:36;55.20;;;26.47;;
6671;SDS011;3372;48.690;12.362;2022-11-30T04:01:12;57.70;;;26.33;;
6671;SDS011;3372;48.690;12.362;2022-11-30T04:03:40;59.63;;;27.33;;
6671;SDS011;3372;48.690;12.362;2022-11-30T04:06:07;60.10;;;26.53;;
6671;SDS011;3372;48.690;12.362;2022-11-30T04:08:34;66.17;;;28.47;;
6671;SDS011;3372;48.690;12.362;2022-11-30T04:11:00;58.97;;;28.47;;
6671;SDS011;3372;48.690;12.362;2022-11-30T04:13:27;53.77;;;26.80;;
6671;SDS011;3372;48.690;12.362;2022-11-30T04:15:53;59.73;;;27.97;;
6671;SDS011;3372;48.690;12.362;2022-11-30T04:18:19;57.60;;;27.07;;
6671;SDS011;3372;48.690;12.362;2022-11-30T04:20:48;54.77;;;26.20;;
6671;SDS011;3372;48.690;12.362;2022-11-30T04:23:15;49.70;;;25.30;;
6671;SDS011;3372;48.690;12.362;2022-11-30T04:25:41;61.63;;;27.70;;
6671;SDS011;3372;48.690;12.362;2022-11-30T04:28:07;59.00;;;28.03;;
6671;SDS011;3372;48.690;12.362;2022-11-30T04:30:33;51.23;;;25.17;;
6671;SDS011;3372;48.690;12.362;2022-11-30T04:33:00;60.03;;;27.70;;
6671;SDS011;3372;48.690;12.362;2022-11-30T04:35:27;52.83;;;26.37;;
6671;SDS011;3372;48.690;12.362;2022-11-30T04:37:53;53.73;;;27.33;;
6671;SDS011;3372;48.690;12.362;2022-11-30T04:40:18;57.20;;;27.60;;
6671;SDS011;3372;48.690;12.362;2022-11-30T04:42:44;63.33;;;27.70;;
6671;SDS011;3372;48.690;12.362;2022-11-30T04:45:10;57.17;;;27.40;;
6671;SDS011;3372;48.690;12.362;2022-11-30T04:47:36;58.77;;;25.90;;
6671;SDS011;3372;48.690;12.362;2022-11-30T04:50:02;49.33;;;24.73;;
6671;SDS011;3372;48.690;12.362;2022-11-30T04:52:29;58.90;;;29.70;;
6671;SDS011;3372;48.690;12.362;2022-11-30T04:54:54;61.23;;;28.03;;
6671;SDS011;3372;48.690;12.362;2022-11-30T04:57:20;58.13;;;28.23;;
6671;SDS011;3372;48.690;12.362;2022-11-30T04:59:46;60.50;;;27.77;;
6671;SDS011;3372;48.690;12.362;2022-11-30T05:02:12;63.77;;;29.10;;
6671;SDS011;3372;48.690;12.362;2022-11-30T05:04:38;54.03;;;27.73;;
6671;SDS011;3372;48.690;12.362;2022-11-30T05:07:03;59.73;;;27.47;;
6671;SDS011;3372;48.690;12.362;2022-11-30T05:09:30;58.17;;;27.90;;
6671;SDS011;3372;48.690;12.362;2022-11-30T05:11:55;63.43;;;29.07;;
6671;SDS011;3372;48.690;12.362;2022-11-30T05:14:21;58.90;;;26.53;;
6671;SDS011;3372;48.690;12.362;2022-11-30T05:16:47;60.23;;;28.13;;
6671;SDS011;3372;48.690;12.362;2022-11-30T05:19:12;57.00;;;26.23;;
6671;SDS011;3372;48.690;12.362;2022-11-30T05:21:39;58.90;;;26.80;;
6671;SDS011;3372;48.690;12.362;2022-11-30T05:24:05;53.63;;;27.00;;
6671;SDS011;3372;48.690;12.362;2022-11-30T05:26:31;52.60;;;26.87;;
6671;SDS011;3372;48.690;12.362;2022-11-30T05:28:56;59.30;;;27.67;;
6671;SDS011;3372;48.690;12.362;2022-11-30T05:31:22;53.80;;;25.67;;
6671;SDS011;3372;48.690;12.362;2022-11-30T05:33:49;64.73;;;28.20;;
6671;SDS011;3372;48.690;12.362;2022-11-30T05:36:18;56.17;;;25.07;;
6671;SDS011;3372;48.690;12.362;2022-11-30T05:38:44;58.17;;;27.20;;
6671;SDS011;3372;48.690;12.362;2022-11-30T05:41:10;52.37;;;25.30;;
6671;SDS011;3372;48.690;12.362;2022-11-30T05:43:36;54.00;;;25.23;;
6671;SDS011;3372;48.690;12.362;2022-11-30T05:46:02;59.00;;;26.77;;
6671;SDS011;3372;48.690;12.362;2022-11-30T05:48:29;51.87;;;25.47;;
6671;SDS011;3372;48.690;12.362;2022-11-30T05:51:03;50.03;;;24.60;;
6671;SDS011;3372;48.690;12.362;2022-11-30T05:53:29;47.77;;;24.03;;
6671;SDS011;3372;48.690;12.362;2022-11-30T05:55:55;50.57;;;26.20;;
6671;SDS011;3372;48.690;12.362;2022-11-30T05:58:21;53.10;;;26.27;;
6671;SDS011;3372;48.690;12.362;2022-11-30T06:00:46;50.07;;;25.37;;
6671;SDS011;3372;48.690;12.362;2022-11-30T06:03:12;52.47;;;24.70;;
6671;SDS011;3372;48.690;12.362;2022-11-30T06:05:37;53.67;;;27.20;;
6671;SDS011;3372;48.690;12.362;2022-11-30T06:08:03;53.30;;;25.33;;
6671;SDS011;3372;48.690;12.362;2022-11-30T06:10:29;49.50;;;25.37;;
6671;SDS011;3372;48.690;12.362;2022-11-30T06:12:54;54.60;;;25.57;;
6671;SDS011;3372;48.690;12.362;2022-11-30T06:15:20;48.90;;;24.07;;
6671;SDS011;3372;48.690;12.362;2022-11-30T06:17:45;54.10;;;26.40;;
6671;SDS011;3372;48.690;12.362;2022-11-30T06:20:11;57.17;;;26.37;;
6671;SDS011;3372;48.690;12.362;2022-11-30T06:22:37;53.97;;;26.93;;
6671;SDS011;3372;48.690;12.362;2022-11-30T06:25:03;56.00;;;26.37;;
6671;SDS011;3372;48.690;12.362;2022-11-30T06:27:29;55.97;;;25.73;;
6671;SDS011;3372;48.690;12.362;2022-11-30T06:29:55;55.43;;;24.83;;
6671;SDS011;3372;48.690;12.362;2022-11-30T06:32:22;52.83;;;26.10;;
6671;SDS011;3372;48.690;12.362;2022-11-30T06:34:48;51.47;;;25.23;;
6671;SDS011;3372;48.690;12.362;2022-11-30T06:37:13;51.50;;;26.13;;
6671;SDS011;3372;48.690;12.362;2022-11-30T06:39:39;50.63;;;23.93;;
6671;SDS011;3372;48.690;12.362;2022-11-30T06:42:04;47.83;;;25.70;;
6671;SDS011;3372;48.690;12.362;2022-11-30T06:44:30;52.63;;;24.30;;
6671;SDS011;3372;48.690;12.362;2022-11-30T06:46:56;52.57;;;24.63;;
6671;SDS011;3372;48.690;12.362;2022-11-30T06:49:21;47.07;;;24.03;;
6671;SDS011;3372;48.690;12.362;2022-11-30T06:51:47;51.23;;;25.63;;
6671;SDS011;3372;48.690;12.362;2022-11-30T06:54:12;51.67;;;25.50;;
6671;SDS011;3372;48.690;12.362;2022-11-30T06:56:38;51.67;;;24.90;;
6671;SDS011;3372;48.690;12.362;2022-11-30T06:59:03;51.27;;;24.17;;
6671;SDS011;3372;48.690;12.362;2022-11-30T07:01:29;46.37;;;24.13;;
6671;SDS011;3372;48.690;12.362;2022-11-30T07:03:54;48.80;;;24.40;;
6671;SDS011;3372;48.690;12.362;2022-11-30T07:06:20;53.97;;;26.20;;
6671;SDS011;3372;48.690;12.362;2022-11-30T07:08:46;44.03;;;22.03;;
6671;SDS011;3372;48.690;12.362;2022-11-30T07:11:11;49.50;;;25.50;;
6671;SDS011;3372;48.690;12.362;2022-11-30T07:13:37;52.83;;;24.67;;
6671;SDS011;3372;48.690;12.362;2022-11-30T07:16:04;50.50;;;25.37;;
6671;SDS011;3372;48.690;12.362;2022-11-30T07:18:31;45.77;;;22.57;;
6671;SDS011;3372;48.690;12.362;2022-11-30T07:20:58;49.30;;;23.77;;
6671;SDS011;3372;48.690;12.362;2022-11-30T07:23:27;47.27;;;24.93;;
6671;SDS011;3372;48.690;12.362;2022-11-30T07:26:12;45.57;;;22.83;;
6671;SDS011;3372;48.690;12.362;2022-11-30T07:28:41;48.20;;;24.10;;
6671;SDS011;3372;48.690;12.362;2022-11-30T07:33:39;45.97;;;23.20;;
6671;SDS011;3372;48.690;12.362;2022-11-30T07:36:05;48.23;;;23.70;;
6671;SDS011;3372;48.690;12.362;2022-11-30T07:38:31;51.23;;;25.23;;
6671;SDS011;3372;48.690;12.362;2022-11-30T07:40:57;46.43;;;23.33;;
6671;SDS011;3372;48.690;12.362;2022-11-30T07:43:22;46.17;;;23.50;;
6671;SDS011;3372;48.690;12.362;2022-11-30T07:45:50;49.00;;;22.70;;
6671;SDS011;3372;48.690;12.362;2022-11-30T07:48:17;55.07;;;23.93;;
6671;SDS011;3372;48.690;12.362;2022-11-30T07:50:43;46.53;;;23.13;;
6671;SDS011;3372;48.690;12.362;2022-11-30T07:53:08;45.97;;;23.50;;
6671;SDS011;3372;48.690;12.362;2022-11-30T07:55:34;49.30;;;24.80;;
6671;SDS011;3372;48.690;12.362;2022-11-30T07:57:59;41.60;;;20.80;;
6671;SDS011;3372;48.690;12.362;2022-11-30T08:00:25;50.20;;;23.63;;
6671;SDS011;3372;48.690;12.362;2022-11-30T08:02:51;49.90;;;23.53;;
6671;SDS011;3372;48.690;12.362;2022-11-30T08:05:16;51.23;;;24.50;;
6671;SDS011;3372;48.690;12.362;2022-11-30T08:07:42;48.17;;;23.00;;
6671;SDS011;3372;48.690;12.362;2022-11-30T08:10:09;45.03;;;22.37;;
6671;SDS011;3372;48.690;12.362;2022-11-30T08:12:36;47.63;;;21.73;;
6671;SDS011;3372;48.690;12.362;2022-11-30T08:15:01;48.83;;;23.13;;
6671;SDS011;3372;48.690;12.362;2022-11-30T08:17:27;47.87;;;24.67;;
6671;SDS011;3372;48.690;12.362;2022-11-30T08:19:53;43.27;;;21.83;;
6671;SDS011;3372;48.690;12.362;2022-11-30T08:22:18;42.20;;;22.00;;
6671;SDS011;3372;48.690;12.362;2022-11-30T08:24:44;46.83;;;22.30;;
6671;SDS011;3372;48.690;12.362;2022-11-30T08:27:09;45.93;;;23.37;;
6671;SDS011;3372;48.690;12.362;2022-11-30T08:29:35;46.90;;;22.97;;
6671;SDS011;3372;48.690;12.362;2022-11-30T08:32:00;48.50;;;23.83;;
6671;SDS011;3372;48.690;12.362;2022-11-30T08:34:26;48.47;;;23.57;;
6671;SDS011;3372;48.690;12.362;2022-11-30T08:36:52;47.17;;;23.50;;
6671;SDS011;3372;48.690;12.362;2022-11-30T08:39:17;40.53;;;21.87;;
6671;SDS011;3372;48.690;12.362;2022-11-30T08:41:43;45.20;;;22.50;;
6671;SDS011;3372;48.690;12.362;2022-11-30T08:44:08;43.93;;;21.97;;
6671;SDS011;3372;48.690;12.362;2022-11-30T08:46:35;43.97;;;21.77;;
6671;SDS011;3372;48.690;12.362;2022-11-30T08:49:02;41.43;;;22.07;;
6671;SDS011;3372;48.690;12.362;2022-11-30T08:51:28;42.87;;;23.47;;
6671;SDS011;3372;48.690;12.362;2022-11-30T08:53:53;42.40;;;21.73;;
6671;SDS011;3372;48.690;12.362;2022-11-30T08:56:19;43.97;;;22.23;;
6671;SDS011;3372;48.690;12.362;2022-11-30T08:58:48;45.87;;;22.63;;
6671;SDS011;3372;48.690;12.362;2022-11-30T09:01:15;39.83;;;21.23;;
6671;SDS011;3372;48.690;12.362;2022-11-30T09:03:43;43.80;;;22.67;;
6671;SDS011;3372;48.690;12.362;2022-11-30T09:06:11;41.43;;;21.80;;
6671;SDS011;3372;48.690;12.362;2022-11-30T09:08:48;46.10;;;22.27;;
6671;SDS011;3372;48.690;12.362;2022-11-30T09:11:21;43.50;;;20.80;;
6671;SDS011;3372;48.690;12.362;2022-11-30T09:13:56;47.20;;;22.60;;
6671;SDS011;3372;48.690;12.362;2022-11-30T09:16:23;44.90;;;22.50;;
6671;SDS011;3372;48.690;12.362;2022-11-30T09:18:50;41.10;;;22.90;;
6671;SDS011;3372;48.690;12.362;2022-11-30T09:21:17;42.33;;;21.23;;
6671;SDS011;3372;48.690;12.362;2022-11-30T09:23:45;44.73;;;22.43;;
6671;SDS011;3372;48.690;12.362;2022-11-30T09:26:12;44.37;;;22.67;;
6671;SDS011;3372;48.690;12.362;2022-11-30T09:28:41;39.17;;;20.80;;
6671;SDS011;3372;48.690;12.362;2022-11-30T09:31:10;43.07;;;22.57;;
6671;SDS011;3372;48.690;12.362;2022-11-30T09:33:37;38.90;;;21.53;;
6671;SDS011;3372;48.690;12.362;2022-11-30T09:36:07;44.90;;;23.33;;
6671;SDS011;3372;48.690;12.362;2022-11-30T09:38:34;43.93;;;21.47;;
6671;SDS011;3372;48.690;12.362;2022-11-30T09:41:01;46.07;;;23.10;;
6671;SDS011;3372;48.690;12.362;2022-11-30T09:43:39;43.40;;;22.50;;
6671;SDS011;3372;48.690;12.362;2022-11-30T09:46:08;42.97;;;21.63;;
6671;SDS011;3372;48.690;12.362;2022-11-30T09:51:47;48.23;;;22.40;;
6671;SDS011;3372;48.690;12.362;2022-11-30T09:54:15;42.90;;;21.80;;
6671;SDS011;3372;48.690;12.362;2022-11-30T09:56:45;40.40;;;21.43;;
6671;SDS011;3372;48.690;12.362;2022-11-30T09:59:13;42.90;;;20.43;;
6671;SDS011;3372;48.690;12.362;2022-11-30T10:01:45;47.43;;;23.13;;
6671;SDS011;3372;48.690;12.362;2022-11-30T10:04:22;40.40;;;20.70;;
6671;SDS011;3372;48.690;12.362;2022-11-30T10:07:17;39.73;;;21.00;;
6671;SDS011;3372;48.690;12.362;2022-11-30T10:12:35;38.80;;;20.47;;
6671;SDS011;3372;48.690;12.362;2022-11-30T10:26:31;41.57;;;19.90;;
6671;SDS011;3372;48.690;12.362;2022-11-30T10:29:23;39.67;;;21.40;;
6671;SDS011;3372;48.690;12.362;2022-11-30T10:32:26;42.40;;;20.40;;
6671;SDS011;3372;48.690;12.362;2022-11-30T10:35:10;41.63;;;20.50;;
6671;SDS011;3372;48.690;12.362;2022-11-30T10:37:46;39.83;;;20.80;;
6671;SDS011;3372;48.690;12.362;2022-11-30T10:40:19;36.70;;;20.07;;
6671;SDS011;3372;48.690;12.362;2022-11-30T10:45:33;39.40;;;19.80;;
6671;SDS011;3372;48.690;12.362;2022-11-30T10:50:39;40.30;;;21.40;;
6671;SDS011;3372;48.690;12.362;2022-11-30T10:53:05;36.60;;;19.97;;
6671;SDS011;3372;48.690;12.362;2022-11-30T10:55:35;39.77;;;20.60;;
6671;SDS011;3372;48.690;12.362;2022-11-30T11:00:43;37.53;;;20.03;;
6671;SDS011;3372;48.690;12.362;2022-11-30T11:03:23;38.77;;;19.17;;
6671;SDS011;3372;48.690;12.362;2022-11-30T11:08:39;41.27;;;20.97;;
6671;SDS011;3372;48.690;12.362;2022-11-30T11:11:24;39.33;;;20.73;;
6671;SDS011;3372;48.690;12.362;2022-11-30T11:14:06;39.27;;;19.87;;
6671;SDS011;3372;48.690;12.362;2022-11-30T11:17:39;37.77;;;21.10;;
6671;SDS011;3372;48.690;12.362;2022-11-30T11:19:42;41.40;;;21.77;;
6671;SDS011;3372;48.690;12.362;2022-11-30T11:22:20;44.37;;;22.20;;
6671;SDS011;3372;48.690;12.362;2022-11-30T11:24:47;39.37;;;20.90;;
6671;SDS011;3372;48.690;12.362;2022-11-30T11:40:56;40.90;;;21.93;;
6671;SDS011;3372;48.690;12.362;2022-11-30T11:43:26;40.73;;;21.67;;
6671;SDS011;3372;48.690;12.362;2022-11-30T11:45:54;36.73;;;20.60;;
6671;SDS011;3372;48.690;12.362;2022-11-30T11:48:34;46.00;;;22.20;;
6671;SDS011;3372;48.690;12.362;2022-11-30T11:51:11;39.53;;;21.10;;
6671;SDS011;3372;48.690;12.362;2022-11-30T12:04:41;36.70;;;20.57;;
6671;SDS011;3372;48.690;12.362;2022-11-30T12:07:27;33.83;;;18.27;;
6671;SDS011;3372;48.690;12.362;2022-11-30T12:09:55;34.83;;;18.80;;
6671;SDS011;3372;48.690;12.362;2022-11-30T12:12:41;33.77;;;18.27;;
6671;SDS011;3372;48.690;12.362;2022-11-30T12:15:09;35.80;;;18.13;;
6671;SDS011;3372;48.690;12.362;2022-11-30T12:25:45;31.47;;;18.47;;
6671;SDS011;3372;48.690;12.362;2022-11-30T12:43:03;32.30;;;18.60;;
6671;SDS011;3372;48.690;12.362;2022-11-30T12:45:43;35.93;;;18.53;;
6671;SDS011;3372;48.690;12.362;2022-11-30T12:53:38;28.60;;;17.40;;
6671;SDS011;3372;48.690;12.362;2022-11-30T12:56:42;34.03;;;18.13;;
6671;SDS011;3372;48.690;12.362;2022-11-30T13:07:50;31.73;;;17.43;;
6671;SDS011;3372;48.690;12.362;2022-11-30T13:10:06;31.87;;;17.83;;
6671;SDS011;3372;48.690;12.362;2022-11-30T13:12:53;31.27;;;17.80;;
6671;SDS011;3372;48.690;12.362;2022-11-30T13:15:22;31.47;;;17.77;;
6671;SDS011;3372;48.690;12.362;2022-11-30T13:17:51;35.90;;;18.50;;
6671;SDS011;3372;48.690;12.362;2022-11-30T13:23:11;29.40;;;17.00;;
6671;SDS011;3372;48.690;12.362;2022-11-30T13:31:06;32.83;;;16.60;;
6671;SDS011;3372;48.690;12.362;2022-11-30T13:36:05;27.70;;;16.40;;
6671;SDS011;3372;48.690;12.362;2022-11-30T13:38:46;30.13;;;17.50;;
6671;SDS011;3372;48.690;12.362;2022-11-30T13:41:31;33.43;;;17.00;;
6671;SDS011;3372;48.690;12.362;2022-11-30T13:43:57;37.53;;;20.00;;
6671;SDS011;3372;48.690;12.362;2022-11-30T13:46:23;32.57;;;17.93;;
6671;SDS011;3372;48.690;12.362;2022-11-30T13:48:48;34.63;;;18.90;;
6671;SDS011;3372;48.690;12.362;2022-11-30T13:51:53;32.00;;;17.90;;
6671;SDS011;3372;48.690;12.362;2022-11-30T13:59:53;33.27;;;18.37;;
6671;SDS011;3372;48.690;12.362;2022-11-30T14:07:44;34.63;;;18.30;;
6671;SDS011;3372;48.690;12.362;2022-11-30T14:10:37;33.20;;;17.67;;
6671;SDS011;3372;48.690;12.362;2022-11-30T14:18:18;31.63;;;17.47;;
6671;SDS011;3372;48.690;12.362;2022-11-30T14:23:32;33.03;;;17.80;;
6671;SDS011;3372;48.690;12.362;2022-11-30T14:26:05;28.90;;;16.67;;
6671;SDS011;3372;48.690;12.362;2022-11-30T14:31:14;34.73;;;18.97;;
6671;SDS011;3372;48.690;12.362;2022-11-30T14:33:48;31.40;;;17.83;;
6671;SDS011;3372;48.690;12.362;2022-11-30T14:36:14;33.07;;;18.43;;
6671;SDS011;3372;48.690;12.362;2022-11-30T14:38:42;31.53;;;17.57;;
6671;SDS011;3372;48.690;12.362;2022-11-30T14:41:17;33.90;;;17.33;;
6671;SDS011;3372;48.690;12.362;2022-11-30T14:44:09;33.37;;;16.97;;
6671;SDS011;3372;48.690;12.362;2022-11-30T14:46:37;34.13;;;17.40;;
6671;SDS011;3372;48.690;12.362;2022-11-30T14:49:13;30.80;;;15.90;;
6671;SDS011;3372;48.690;12.362;2022-11-30T14:52:02;29.10;;;17.37;;
6671;SDS011;3372;48.690;12.362;2022-11-30T14:57:21;30.47;;;15.97;;
6671;SDS011;3372;48.690;12.362;2022-11-30T14:59:56;31.43;;;17.47;;
6671;SDS011;3372;48.690;12.362;2022-11-30T15:02:24;30.73;;;17.67;;
6671;SDS011;3372;48.690;12.362;2022-11-30T15:05:01;32.00;;;16.90;;
6671;SDS011;3372;48.690;12.362;2022-11-30T15:07:30;31.27;;;18.20;;
6671;SDS011;3372;48.690;12.362;2022-11-30T15:10:03;33.00;;;18.53;;
6671;SDS011;3372;48.690;12.362;2022-11-30T15:12:32;39.17;;;19.33;;
6671;SDS011;3372;48.690;12.362;2022-11-30T15:20:16;35.50;;;18.03;;
6671;SDS011;3372;48.690;12.362;2022-11-30T15:22:44;33.33;;;19.43;;
6671;SDS011;3372;48.690;12.362;2022-11-30T15:25:11;31.57;;;17.03;;
6671;SDS011;3372;48.690;12.362;2022-11-30T15:27:37;30.73;;;18.60;;
6671;SDS011;3372;48.690;12.362;2022-11-30T15:30:03;38.93;;;18.10;;
6671;SDS011;3372;48.690;12.362;2022-11-30T15:32:29;35.40;;;18.53;;
6671;SDS011;3372;48.690;12.362;2022-11-30T15:34:55;34.53;;;18.27;;
6671;SDS011;3372;48.690;12.362;2022-11-30T15:37:29;31.47;;;18.43;;
6671;SDS011;3372;48.690;12.362;2022-11-30T15:39:58;31.03;;;16.57;;
6671;SDS011;3372;48.690;12.362;2022-11-30T15:42:29;35.40;;;18.50;;
6671;SDS011;3372;48.690;12.362;2022-11-30T15:45:13;29.50;;;17.23;;
6671;SDS011;3372;48.690;12.362;2022-11-30T15:47:45;31.90;;;17.67;;
6671;SDS011;3372;48.690;12.362;2022-11-30T15:52:56;35.10;;;19.00;;
6671;SDS011;3372;48.690;12.362;2022-11-30T15:55:43;33.03;;;17.67;;
6671;SDS011;3372;48.690;12.362;2022-11-30T16:01:21;34.65;;;19.00;;
6671;SDS011;3372;48.690;12.362;2022-11-30T16:06:29;29.27;;;17.07;;
6671;SDS011;3372;48.690;12.362;2022-11-30T16:11:52;31.50;;;17.57;;
6671;SDS011;3372;48.690;12.362;2022-11-30T16:14:18;27.87;;;16.93;;
6671;SDS011;3372;48.690;12.362;2022-11-30T16:16:44;33.10;;;18.23;;
6671;SDS011;3372;48.690;12.362;2022-11-30T16:19:10;31.40;;;17.47;;
6671;SDS011;3372;48.690;12.362;2022-11-30T16:21:36;36.20;;;19.83;;
6671;SDS011;3372;48.690;12.362;2022-11-30T16:24:02;34.60;;;17.73;;
6671;SDS011;3372;48.690;12.362;2022-11-30T16:26:27;35.30;;;19.60;;
6671;SDS011;3372;48.690;12.362;2022-11-30T16:28:53;34.80;;;19.17;;
6671;SDS011;3372;48.690;12.362;2022-11-30T16:31:19;36.53;;;19.30;;
6671;SDS011;3372;48.690;12.362;2022-11-30T16:33:46;36.17;;;20.00;;
6671;SDS011;3372;48.690;12.362;2022-11-30T16:36:14;39.10;;;21.13;;
6671;SDS011;3372;48.690;12.362;2022-11-30T16:38:45;40.57;;;22.37;;
6671;SDS011;3372;48.690;12.362;2022-11-30T16:41:25;34.77;;;19.57;;
6671;SDS011;3372;48.690;12.362;2022-11-30T16:43:53;34.87;;;19.40;;
6671;SDS011;3372;48.690;12.362;2022-11-30T16:46:23;46.30;;;25.67;;
6671;SDS011;3372;48.690;12.362;2022-11-30T16:48:51;48.60;;;24.70;;
6671;SDS011;3372;48.690;12.362;2022-11-30T16:51:24;36.20;;;20.83;;
6671;SDS011;3372;48.690;12.362;2022-11-30T16:53:55;32.60;;;17.80;;
6671;SDS011;3372;48.690;12.362;2022-11-30T16:56:21;36.30;;;19.07;;
6671;SDS011;3372;48.690;12.362;2022-11-30T16:58:47;34.20;;;18.77;;
6671;SDS011;3372;48.690;12.362;2022-11-30T17:01:14;28.33;;;15.73;;
6671;SDS011;3372;48.690;12.362;2022-11-30T17:03:43;33.87;;;17.20;;
6671;SDS011;3372;48.690;12.362;2022-11-30T17:06:16;28.80;;;16.53;;
6671;SDS011;3372;48.690;12.362;2022-11-30T17:08:44;30.43;;;16.67;;
6671;SDS011;3372;48.690;12.362;2022-11-30T17:11:15;34.17;;;16.17;;
6671;SDS011;3372;48.690;12.362;2022-11-30T17:13:45;33.10;;;15.60;;
6671;SDS011;3372;48.690;12.362;2022-11-30T17:16:11;33.43;;;17.80;;
6671;SDS011;3372;48.690;12.362;2022-11-30T17:18:37;36.43;;;20.00;;
6671;SDS011;3372;48.690;12.362;2022-11-30T17:21:02;32.27;;;18.20;;
6671;SDS011;3372;48.690;12.362;2022-11-30T17:23:28;32.57;;;17.40;;